createdAt,value
2023-01-09T00:00:59.323Z,9.60
2023-01-09T00:08:00.936Z,9.61
2023-01-09T00:15:02.625Z,9.40
2023-01-09T00:22:06.381Z,9.29
2023-01-09T00:29:09.517Z,9.29
2023-01-09T00:36:11.480Z,9.20
2023-01-09T00:43:13.073Z,9.28
2023-01-09T00:50:16.966Z,9.08
2023-01-09T00:57:18.594Z,9.30
2023-01-09T01:04:38.906Z,9.26
2023-01-09T01:11:40.758Z,9.33
2023-01-09T01:18:42.309Z,9.24
2023-01-09T01:25:44.015Z,9.15
2023-01-09T01:32:45.754Z,9.01
2023-01-09T01:39:47.415Z,9.07
2023-01-09T01:46:49.006Z,9.07
2023-01-09T01:53:53.744Z,8.96
2023-01-09T02:00:55.501Z,8.90
2023-01-09T02:07:57.187Z,8.95
2023-01-09T02:15:07.347Z,8.86
2023-01-09T02:22:40.422Z,8.88
2023-01-09T02:30:03.356Z,8.75
2023-01-09T02:37:12.901Z,8.57
2023-01-09T02:44:25.988Z,8.53
2023-01-09T02:51:41.018Z,8.74
2023-01-09T02:59:00.816Z,8.65
2023-01-09T03:06:11.653Z,8.63
2023-01-09T03:13:14.454Z,8.67
2023-01-09T03:20:17.922Z,8.53
2023-01-09T03:27:19.518Z,8.62
2023-01-09T03:34:21.163Z,8.69
2023-01-09T03:41:22.805Z,8.65
2023-01-09T03:48:24.445Z,8.65
2023-01-09T03:55:26.066Z,8.98
2023-01-09T04:02:27.739Z,8.77
2023-01-09T04:09:29.419Z,8.68
2023-01-09T04:16:31.136Z,8.66
2023-01-09T04:23:32.764Z,8.67
2023-01-09T04:30:34.412Z,8.65
2023-01-09T04:37:38.809Z,8.79
2023-01-09T04:44:40.455Z,8.88
2023-01-09T04:51:42.129Z,8.77
2023-01-09T04:58:43.729Z,8.85
2023-01-09T05:05:45.459Z,8.72
2023-01-09T05:12:47.067Z,8.79
2023-01-09T05:19:48.715Z,8.92
2023-01-09T05:26:50.616Z,9.08
2023-01-09T05:33:52.950Z,9.04
2023-01-09T05:40:54.654Z,9.10
2023-01-09T05:47:56.313Z,9.01
2023-01-09T05:54:57.942Z,9.03
2023-01-09T06:01:59.653Z,9.00
2023-01-09T06:09:01.546Z,9.04
2023-01-09T06:16:03.299Z,8.91
2023-01-09T06:23:04.912Z,8.99
2023-01-09T06:30:07.437Z,9.07
2023-01-09T06:37:09.154Z,8.93
2023-01-09T06:44:10.807Z,8.96
2023-01-09T06:51:12.517Z,9.16
2023-01-09T06:58:14.227Z,9.12
2023-01-09T07:05:16.000Z,8.97
2023-01-09T07:12:17.627Z,8.96
2023-01-09T07:19:19.331Z,8.92
2023-01-09T07:26:20.984Z,9.22
2023-01-09T07:33:22.641Z,9.67
2023-01-09T07:40:24.439Z,9.98
2023-01-09T07:47:26.093Z,9.88
2023-01-09T07:54:27.810Z,9.96
2023-01-09T08:01:29.468Z,10.14
2023-01-09T08:08:31.225Z,9.87
2023-01-09T08:15:33.562Z,9.96
2023-01-09T08:22:35.247Z,9.91
2023-01-09T08:29:36.894Z,9.97
2023-01-09T08:36:38.481Z,9.88
2023-01-09T08:43:58.275Z,10.22
2023-01-09T08:51:00.098Z,10.03
2023-01-09T08:58:01.804Z,10.12
2023-01-09T09:05:03.493Z,10.18
2023-01-09T09:12:05.680Z,10.38
2023-01-09T09:19:07.292Z,10.30
2023-01-09T09:26:08.921Z,10.55
2023-01-09T09:33:10.566Z,10.61
2023-01-09T09:40:18.727Z,10.40
2023-01-09T09:47:48.669Z,10.62
2023-01-09T09:54:53.056Z,10.67
2023-01-09T10:02:09.789Z,10.82
2023-01-09T10:09:26.313Z,10.91
2023-01-09T10:16:37.214Z,11.26
2023-01-09T10:24:06.553Z,11.28
2023-01-09T10:31:14.278Z,11.27
2023-01-09T10:38:19.502Z,11.34
2023-01-09T10:45:26.638Z,11.31
2023-01-09T10:52:38.284Z,11.81
2023-01-09T10:59:43.162Z,11.79
2023-01-09T11:06:46.522Z,11.95
2023-01-09T11:13:48.564Z,12.00
2023-01-09T11:20:50.393Z,11.80
2023-01-09T11:28:21.104Z,12.05
2023-01-09T11:35:23.440Z,12.07
2023-01-09T11:42:44.663Z,11.91
2023-01-09T11:49:46.427Z,11.82
2023-01-09T11:56:48.567Z,12.11
2023-01-09T12:03:50.136Z,12.12
2023-01-09T12:11:05.433Z,12.14
2023-01-09T12:18:32.742Z,12.33
2023-01-09T12:25:54.633Z,12.45
2023-01-09T12:33:34.767Z,12.38
2023-01-09T12:40:59.877Z,12.31
2023-01-09T12:48:17.182Z,12.62
2023-01-09T12:55:26.263Z,12.54
2023-01-09T13:02:37.709Z,12.45
2023-01-09T13:09:43.080Z,12.70
2023-01-09T13:16:48.719Z,12.83
2023-01-09T13:24:14.798Z,12.77
2023-01-09T13:31:40.456Z,12.92
2023-01-09T13:38:42.148Z,12.71
2023-01-09T13:45:44.800Z,12.57
2023-01-09T13:52:46.477Z,12.84
2023-01-09T13:59:48.475Z,12.62
2023-01-09T14:07:16.716Z,12.57
2023-01-09T14:14:30.127Z,12.63
2023-01-09T14:21:45.625Z,12.63
2023-01-09T14:28:47.279Z,12.69
2023-01-09T14:36:10.070Z,12.70
2023-01-09T14:43:24.019Z,12.75
2023-01-09T14:50:50.924Z,12.55
2023-01-09T14:57:56.276Z,12.47
2023-01-09T15:05:00.710Z,12.64
2023-01-09T15:12:07.439Z,12.60
2023-01-09T15:19:09.069Z,12.52
2023-01-09T15:26:29.817Z,12.66
2023-01-09T15:33:31.833Z,12.59
2023-01-09T15:40:34.011Z,12.45
2023-01-09T15:47:35.970Z,12.40
2023-01-09T15:54:38.784Z,12.29
2023-01-09T16:01:40.698Z,12.36
2023-01-09T16:08:47.739Z,12.18
2023-01-09T16:15:49.525Z,12.27
2023-01-09T16:22:53.396Z,12.31
2023-01-09T16:29:59.382Z,12.35
2023-01-09T16:37:02.886Z,12.33
2023-01-09T16:44:09.340Z,12.51
2023-01-09T16:51:17.009Z,12.35
2023-01-09T16:58:24.115Z,12.25
2023-01-09T17:05:25.740Z,12.24
2023-01-09T17:12:28.129Z,12.18
2023-01-09T17:19:30.484Z,12.08
2023-01-09T17:26:50.770Z,12.10
2023-01-09T17:33:52.879Z,12.16
2023-01-09T17:40:57.280Z,12.01
2023-01-09T17:47:58.886Z,11.79
2023-01-09T17:55:05.483Z,11.85
2023-01-09T18:02:17.338Z,12.02
2023-01-09T18:09:19.102Z,11.90
2023-01-09T18:16:24.067Z,12.09
2023-01-09T18:23:26.424Z,12.14
2023-01-09T18:30:28.088Z,11.99
2023-01-09T18:37:29.833Z,12.04
2023-01-09T18:44:31.397Z,11.92
2023-01-09T18:51:34.149Z,12.26
2023-01-09T18:58:35.785Z,12.08
2023-01-09T19:05:37.459Z,12.17
2023-01-09T19:12:39.270Z,12.26
2023-01-09T19:19:41.027Z,12.37
2023-01-09T19:26:42.772Z,12.19
2023-01-09T19:33:44.682Z,11.95
2023-01-09T19:40:46.478Z,12.14
2023-01-09T19:47:49.296Z,12.08
2023-01-09T19:54:50.892Z,12.12
2023-01-09T20:01:52.533Z,12.29
2023-01-09T20:08:56.046Z,11.94
2023-01-09T20:16:02.051Z,12.05
2023-01-09T20:23:03.749Z,12.38
2023-01-09T20:30:05.977Z,12.06
2023-01-09T20:37:07.916Z,12.11
2023-01-09T20:44:13.212Z,11.86
2023-01-09T20:51:14.864Z,11.99
2023-01-09T20:58:16.467Z,12.22
2023-01-09T21:05:18.088Z,12.26
2023-01-09T21:12:28.463Z,12.20
2023-01-09T21:19:30.094Z,12.08
2023-01-09T21:26:31.689Z,12.32
2023-01-09T21:33:33.340Z,12.20
2023-01-09T21:40:34.973Z,12.28
2023-01-09T21:47:36.597Z,12.29
2023-01-09T21:54:38.335Z,12.29
2023-01-09T22:01:39.956Z,12.16
2023-01-09T22:08:41.508Z,12.16
2023-01-09T22:15:44.749Z,12.07
2023-01-09T22:22:46.582Z,12.30
2023-01-09T22:29:48.189Z,12.24
2023-01-09T22:36:49.843Z,12.16
2023-01-09T22:43:51.583Z,12.29
2023-01-09T22:50:53.186Z,12.06
2023-01-09T22:57:54.832Z,12.13
2023-01-09T23:04:58.337Z,12.39
2023-01-09T23:12:02.707Z,12.07
2023-01-09T23:19:07.133Z,11.92
2023-01-09T23:26:09.159Z,12.00
2023-01-09T23:33:10.987Z,11.99
2023-01-09T23:40:12.901Z,11.88
2023-01-09T23:47:14.461Z,11.86
2023-01-09T23:54:16.809Z,12.14
